createdAt,value
2023-03-18T00:00:51.501Z,69.91
2023-03-18T00:03:21.560Z,69.67
2023-03-18T00:05:51.459Z,69.59
2023-03-18T00:08:21.799Z,69.73
2023-03-18T00:10:53.993Z,69.63
2023-03-18T00:13:23.842Z,69.42
2023-03-18T00:15:56.997Z,69.11
2023-03-18T00:18:27.133Z,69.22
2023-03-18T00:20:58.801Z,68.67
2023-03-18T00:23:29.364Z,68.81
2023-03-18T00:26:01.478Z,68.73
2023-03-18T00:28:34.400Z,68.19
2023-03-18T00:31:13.816Z,67.76
2023-03-18T00:33:46.427Z,67.79
2023-03-18T00:36:18.525Z,68.00
2023-03-18T00:38:51.664Z,67.74
2023-03-18T00:41:22.169Z,67.30
2023-03-18T00:43:55.434Z,67.66
2023-03-18T00:46:30.538Z,67.86
2023-03-18T00:49:03.253Z,67.47
2023-03-18T00:51:36.497Z,67.17
2023-03-18T00:54:09.311Z,66.92
2023-03-18T00:56:40.244Z,67.08
2023-03-18T00:59:12.037Z,67.93
2023-03-18T01:01:45.403Z,67.30
2023-03-18T01:04:15.564Z,67.09
2023-03-18T01:06:45.405Z,67.17
2023-03-18T01:09:16.859Z,66.86
2023-03-18T01:11:46.835Z,66.72
2023-03-18T01:14:16.751Z,66.82
2023-03-18T01:16:49.582Z,66.82
2023-03-18T01:19:20.118Z,66.55
2023-03-18T01:21:52.016Z,66.32
2023-03-18T01:24:22.521Z,66.48
2023-03-18T01:26:53.593Z,66.41
2023-03-18T01:29:25.589Z,66.44
2023-03-18T01:31:58.133Z,66.27
2023-03-18T01:34:28.794Z,65.73
2023-03-18T01:36:58.602Z,65.95
2023-03-18T01:39:31.825Z,65.80
2023-03-18T01:42:01.672Z,65.66
2023-03-18T01:44:34.471Z,66.28
2023-03-18T01:47:08.086Z,66.38
2023-03-18T01:49:45.506Z,66.16
2023-03-18T01:52:20.326Z,66.53
2023-03-18T01:54:58.341Z,66.63
2023-03-18T01:57:29.466Z,66.51
2023-03-18T02:00:00.687Z,66.35
2023-03-18T02:02:36.072Z,66.73
2023-03-18T02:05:11.348Z,66.57
2023-03-18T02:07:46.131Z,66.35
2023-03-18T02:10:22.837Z,66.66
2023-03-18T02:12:59.005Z,66.51
2023-03-18T02:15:35.614Z,66.46
2023-03-18T02:18:15.131Z,65.88
2023-03-18T02:21:11.374Z,66.07
2023-03-18T02:23:55.334Z,66.22
2023-03-18T02:26:36.288Z,66.01
2023-03-18T02:29:14.950Z,66.29
2023-03-18T02:31:53.551Z,66.33
2023-03-18T02:34:28.691Z,65.75
2023-03-18T02:37:01.029Z,65.71
2023-03-18T02:39:31.964Z,65.51
2023-03-18T02:42:03.042Z,65.43
2023-03-18T02:44:43.971Z,65.52
2023-03-18T02:47:48.176Z,65.69
2023-03-18T02:50:18.720Z,65.78
2023-03-18T02:52:48.598Z,65.36
2023-03-18T02:55:18.520Z,64.98
2023-03-18T02:57:48.570Z,65.10
2023-03-18T03:00:22.002Z,64.98
2023-03-18T03:02:53.626Z,64.29
2023-03-18T03:05:23.847Z,64.76
2023-03-18T03:07:54.418Z,64.65
2023-03-18T03:10:25.213Z,64.86
2023-03-18T03:12:56.245Z,64.98
2023-03-18T03:15:29.579Z,65.65
2023-03-18T03:18:01.899Z,65.68
2023-03-18T03:20:33.762Z,66.03
2023-03-18T03:23:03.786Z,66.42
2023-03-18T03:25:34.310Z,65.77
2023-03-18T03:28:06.605Z,65.80
2023-03-18T03:30:39.442Z,66.25
2023-03-18T03:33:10.162Z,66.43
2023-03-18T03:35:41.774Z,66.25
2023-03-18T03:38:12.764Z,67.02
2023-03-18T03:40:43.652Z,66.91
2023-03-18T03:43:15.846Z,66.63
2023-03-18T03:45:49.115Z,66.82
2023-03-18T03:48:19.693Z,66.60
2023-03-18T03:50:50.447Z,66.14
2023-03-18T03:53:20.338Z,65.95
2023-03-18T03:55:50.142Z,65.46
2023-03-18T03:58:20.587Z,64.81
2023-03-18T04:00:53.940Z,64.55
2023-03-18T04:03:23.873Z,63.99
2023-03-18T04:05:54.225Z,63.08
2023-03-18T04:08:27.159Z,62.92
2023-03-18T04:10:57.946Z,63.35
2023-03-18T04:13:27.966Z,63.77
2023-03-18T04:16:00.963Z,64.20
2023-03-18T04:18:31.174Z,63.88
2023-03-18T04:21:00.975Z,64.56
2023-03-18T04:23:53.388Z,66.14
2023-03-18T04:26:23.898Z,65.99
2023-03-18T04:28:55.852Z,66.51
2023-03-18T04:31:28.883Z,65.44
2023-03-18T04:34:00.231Z,65.36
2023-03-18T04:36:31.548Z,64.68
2023-03-18T04:39:01.596Z,64.35
2023-03-18T04:41:31.513Z,63.77
2023-03-18T04:44:05.548Z,63.36
2023-03-18T04:46:53.632Z,63.74
2023-03-18T04:49:26.101Z,63.60
2023-03-18T04:51:57.867Z,63.63
2023-03-18T04:54:34.321Z,63.53
2023-03-18T04:57:07.672Z,63.93
2023-03-18T04:59:43.221Z,64.25
2023-03-18T05:02:16.374Z,64.53
2023-03-18T05:04:46.726Z,64.59
2023-03-18T05:07:20.726Z,64.28
2023-03-18T05:10:00.154Z,64.44
2023-03-18T05:12:30.898Z,64.34
2023-03-18T05:15:01.432Z,64.60
2023-03-18T05:17:34.766Z,64.42
2023-03-18T05:20:07.400Z,64.31
2023-03-18T05:22:37.274Z,64.14
2023-03-18T05:25:15.997Z,64.41
2023-03-18T05:27:46.185Z,64.34
2023-03-18T05:30:24.352Z,64.50
2023-03-18T05:32:59.306Z,64.60
2023-03-18T05:35:45.272Z,64.79
2023-03-18T05:38:15.921Z,64.60
2023-03-18T05:40:46.233Z,64.84
2023-03-18T05:43:28.464Z,64.83
2023-03-18T05:46:01.107Z,64.48
2023-03-18T05:48:56.720Z,64.50
2023-03-18T05:51:31.560Z,64.47
2023-03-18T05:54:02.081Z,64.73
2023-03-18T05:56:36.613Z,64.40
2023-03-18T05:59:10.101Z,64.24
2023-03-18T06:01:54.056Z,64.44
2023-03-18T06:04:27.875Z,63.86
2023-03-18T06:06:58.381Z,64.04
2023-03-18T06:09:28.723Z,63.89
2023-03-18T06:11:59.995Z,63.60
2023-03-18T06:14:30.794Z,63.63
2023-03-18T06:17:04.188Z,63.34
2023-03-18T06:19:36.829Z,63.10
2023-03-18T06:22:06.977Z,63.10
2023-03-18T06:24:36.937Z,63.03
2023-03-18T06:27:07.877Z,63.07
2023-03-18T06:29:38.057Z,62.95
2023-03-18T06:32:14.578Z,62.77
2023-03-18T06:34:47.155Z,62.46
2023-03-18T06:37:18.349Z,62.31
2023-03-18T06:39:49.575Z,61.70
2023-03-18T06:42:20.723Z,61.56
2023-03-18T06:45:12.249Z,61.73
2023-03-18T06:47:52.296Z,61.13
2023-03-18T06:50:25.190Z,60.71
2023-03-18T06:52:55.728Z,60.59
2023-03-18T06:55:31.659Z,60.15
2023-03-18T06:58:02.489Z,59.54
2023-03-18T07:00:43.124Z,59.05
2023-03-18T07:03:18.297Z,59.98
2023-03-18T07:05:51.121Z,60.31
2023-03-18T07:08:21.716Z,60.19
2023-03-18T07:10:57.580Z,59.82
2023-03-18T07:13:28.910Z,58.75
2023-03-18T07:16:00.538Z,58.82
2023-03-18T07:18:30.889Z,58.77
2023-03-18T07:21:03.298Z,57.36
2023-03-18T07:23:34.787Z,58.01
2023-03-18T07:26:04.742Z,57.17
2023-03-18T07:28:35.188Z,57.63
2023-03-18T07:31:05.105Z,58.12
2023-03-18T07:33:35.487Z,57.88
2023-03-18T07:36:08.949Z,57.58
2023-03-18T07:38:40.045Z,57.61
2023-03-18T07:41:10.632Z,57.53
2023-03-18T07:43:40.559Z,57.19
2023-03-18T07:46:10.649Z,57.14
2023-03-18T07:48:40.571Z,57.22
2023-03-18T07:51:13.473Z,56.90
2023-03-18T07:53:43.333Z,56.19
2023-03-18T07:56:14.002Z,56.20
2023-03-18T07:58:43.906Z,56.51
2023-03-18T08:01:16.533Z,54.80
2023-03-18T08:03:46.871Z,54.53
2023-03-18T08:06:20.693Z,53.34
2023-03-18T08:08:50.570Z,52.92
2023-03-18T08:11:20.821Z,53.83
2023-03-18T08:13:50.660Z,52.92
2023-03-18T08:16:21.843Z,51.62
2023-03-18T08:18:51.724Z,49.66
2023-03-18T08:21:24.837Z,50.11
2023-03-18T08:23:55.104Z,48.74
2023-03-18T08:26:25.178Z,49.60
2023-03-18T08:28:54.992Z,49.42
2023-03-18T08:31:24.980Z,47.67
2023-03-18T08:33:56.456Z,44.21
2023-03-18T08:36:29.806Z,45.11
2023-03-18T08:39:00.179Z,44.04
2023-03-18T08:41:30.806Z,44.26
2023-03-18T08:44:01.004Z,44.53
2023-03-18T08:46:31.374Z,41.16
2023-03-18T08:49:02.115Z,43.53
2023-03-18T08:51:35.469Z,42.53
2023-03-18T08:54:05.849Z,43.17
2023-03-18T08:56:36.323Z,43.44
2023-03-18T08:59:06.399Z,42.42
2023-03-18T09:01:36.504Z,43.43
2023-03-18T09:04:06.773Z,43.53
2023-03-18T09:06:39.699Z,43.37
2023-03-18T09:09:11.734Z,43.46
2023-03-18T09:11:42.004Z,42.90
2023-03-18T09:14:15.768Z,42.08
2023-03-18T09:16:46.567Z,42.44
2023-03-18T09:19:16.545Z,41.66
2023-03-18T09:21:49.521Z,40.73
2023-03-18T09:24:19.438Z,39.80
2023-03-18T09:26:49.315Z,40.26
2023-03-18T09:29:19.589Z,41.12
2023-03-18T09:31:49.823Z,41.46
2023-03-18T09:34:20.071Z,40.25
2023-03-18T09:36:54.209Z,38.83
2023-03-18T09:39:24.359Z,38.04
2023-03-18T22:03:20.100Z,44.51
2023-03-18T22:11:20.008Z,45.64
2023-03-18T22:13:50.153Z,45.76
